createdAt,value
2019-04-07T00:04:50.248Z,49.51
2019-04-07T00:09:58.670Z,52.17
2019-04-07T00:15:07.065Z,57.62
2019-04-07T00:20:15.490Z,61.32
2019-04-07T00:25:23.861Z,57.38
2019-04-07T00:30:32.345Z,59.17
2019-04-07T00:35:40.576Z,60.30
2019-04-07T00:40:49.301Z,59.57
2019-04-07T00:45:57.025Z,59.44
2019-04-07T00:51:06.628Z,53.11
2019-04-07T00:56:13.890Z,51.49
2019-04-07T01:01:22.851Z,53.41
2019-04-07T01:06:30.255Z,49.95
2019-04-07T01:11:38.608Z,52.39
2019-04-07T01:16:47.185Z,52.08
2019-04-07T01:21:55.785Z,53.78
2019-04-07T01:27:02.978Z,52.09
2019-04-07T01:32:11.477Z,52.37
2019-04-07T01:37:19.880Z,51.67
2019-04-07T01:42:28.129Z,51.09
2019-04-07T01:47:36.293Z,55.71
2019-04-07T01:52:43.832Z,52.95
2019-04-07T01:57:52.122Z,55.46
2019-04-07T02:03:16.408Z,53.47
2019-04-07T02:08:09.778Z,53.43
2019-04-07T02:13:08.950Z,53.52
2019-04-07T02:18:23.459Z,49.74
2019-04-07T02:23:22.736Z,52.05
2019-04-07T02:28:30.865Z,49.87
2019-04-07T02:33:39.442Z,50.64
2019-04-07T02:38:46.708Z,51.32
2019-04-07T02:43:55.581Z,53.34
2019-04-07T02:49:02.468Z,51.75
2019-04-07T02:54:10.647Z,54.81
2019-04-07T02:59:19.727Z,50.11
2019-04-07T03:04:26.530Z,49.15
2019-04-07T03:09:34.940Z,52.49
2019-04-07T03:14:42.965Z,48.59
2019-04-07T03:19:52.023Z,49.36
2019-04-07T03:24:58.744Z,48.74
2019-04-07T03:30:07.032Z,51.73
2019-04-07T03:35:17.846Z,51.20
2019-04-07T03:40:22.973Z,52.15
2019-04-07T03:45:31.340Z,52.77
2019-04-07T03:50:39.557Z,49.79
2019-04-07T03:55:47.903Z,51.71
2019-04-07T04:00:56.287Z,52.54
2019-04-07T04:06:04.735Z,55.78
2019-04-07T04:11:11.887Z,54.49
2019-04-07T04:16:20.177Z,53.92
2019-04-07T04:21:28.858Z,53.30
2019-04-07T04:26:36.092Z,53.75
2019-04-07T04:31:44.183Z,54.05
2019-04-07T04:36:53.108Z,50.95
2019-04-07T04:42:00.055Z,51.81
2019-04-07T04:47:08.233Z,51.13
2019-04-07T04:52:16.365Z,48.22
2019-04-07T04:57:25.210Z,50.12
2019-04-07T05:02:32.590Z,52.55
2019-04-07T05:07:49.777Z,51.11
2019-04-07T05:12:48.246Z,51.97
2019-04-07T05:17:56.018Z,49.55
2019-04-07T05:23:03.006Z,49.83
2019-04-07T05:28:11.305Z,47.58
2019-04-07T05:33:20.021Z,47.96
2019-04-07T05:38:26.932Z,45.75
2019-04-07T05:43:35.477Z,47.52
2019-04-07T05:48:42.578Z,46.42
2019-04-07T05:53:50.710Z,49.27
2019-04-07T05:58:58.797Z,46.51
2019-04-07T06:04:07.570Z,46.47
2019-04-07T06:09:17.721Z,47.56
2019-04-07T06:14:22.667Z,52.23
2019-04-07T06:19:30.337Z,49.06
2019-04-07T06:24:38.338Z,45.43
2019-04-07T06:29:46.344Z,47.01
2019-04-07T06:34:55.110Z,47.86
2019-04-07T06:40:02.326Z,45.84
2019-04-07T06:45:10.844Z,47.39
2019-04-07T06:50:19.094Z,46.83
2019-04-07T06:55:28.675Z,51.05
2019-04-07T07:00:41.875Z,46.34
2019-04-07T07:05:46.240Z,42.64
2019-04-07T07:10:44.716Z,45.88
2019-04-07T07:15:53.276Z,44.79
2019-04-07T07:21:09.963Z,45.02
2019-04-07T07:26:08.171Z,43.70
2019-04-07T07:31:26.708Z,42.21
2019-04-07T07:36:28.875Z,41.55
2019-04-07T07:41:27.982Z,40.63
2019-04-07T07:46:34.404Z,39.15
2019-04-07T07:51:48.544Z,35.49
2019-04-07T07:56:52.421Z,38.65
2019-04-07T08:01:51.396Z,39.90
2019-04-07T08:07:05.493Z,39.43
2019-04-07T08:12:09.458Z,36.06
2019-04-07T08:17:33.961Z,36.76
2019-04-07T08:22:33.741Z,36.24
2019-04-07T08:32:16.559Z,35.26
2019-04-07T08:37:24.105Z,34.94
2019-04-07T08:42:33.961Z,31.42
2019-04-07T08:47:42.530Z,32.54
2019-04-07T08:52:52.134Z,33.60
2019-04-07T08:58:02.252Z,38.16
2019-04-07T09:03:11.460Z,35.69
2019-04-07T09:08:14.967Z,33.66
2019-04-07T09:13:22.713Z,35.33
2019-04-07T09:18:32.014Z,34.00
2019-04-07T09:23:39.302Z,34.40
2019-04-07T09:28:47.635Z,30.35
2019-04-07T09:33:56.223Z,31.28
2019-04-07T09:39:05.615Z,33.39
2019-04-07T09:44:12.706Z,30.86
2019-04-07T09:49:22.312Z,29.33
2019-04-07T09:54:28.344Z,30.41
2019-04-07T09:59:36.565Z,26.15
2019-04-07T10:04:45.061Z,26.21
2019-04-07T10:10:04.747Z,27.19
2019-04-07T10:15:01.996Z,21.67
2019-04-07T10:20:08.808Z,19.61
2019-04-07T10:25:17.131Z,18.22
2019-04-07T10:30:25.966Z,19.01
2019-04-07T10:35:33.536Z,17.07
2019-04-07T10:40:41.556Z,17.06
2019-04-07T10:45:50.555Z,18.35
2019-04-07T10:51:00.177Z,17.80
2019-04-07T11:06:13.835Z,14.60
2019-04-07T11:11:23.125Z,15.47
2019-04-07T11:16:31.226Z,17.41
2019-04-07T11:21:37.930Z,17.35
2019-04-07T11:26:47.434Z,16.86
2019-04-07T11:31:54.942Z,17.05
2019-04-07T11:37:02.554Z,19.18
2019-04-07T11:42:11.764Z,16.13
2019-04-07T11:47:22.996Z,16.53
2019-04-07T11:51:32.446Z,13.69
2019-04-07T11:57:31.216Z,20.36
2019-04-07T12:02:40.447Z,17.29
2019-04-07T12:07:45.952Z,16.71
